createdAt,value
2024-02-11T00:00:00.442Z,96043.18
2024-02-11T00:02:30.197Z,96041.38
2024-02-11T00:04:58.821Z,96043.81
2024-02-11T00:07:27.568Z,96038.35
2024-02-11T00:09:57.179Z,96033.42
2024-02-11T00:12:25.744Z,96032.02
2024-02-11T00:14:54.354Z,96023.56
2024-02-11T00:17:23.060Z,96016.79
2024-02-11T00:19:51.785Z,96013.02
2024-02-11T00:22:20.610Z,96010.61
2024-02-11T00:24:50.635Z,96008.23
2024-02-11T00:27:19.338Z,96015.70
2024-02-11T00:29:48.019Z,96011.67
2024-02-11T00:32:17.170Z,96012.24
2024-02-11T00:34:46.235Z,96007.42
2024-02-11T00:37:14.973Z,96007.11
2024-02-11T00:39:43.657Z,96008.73
2024-02-11T00:42:12.651Z,96007.39
2024-02-11T00:44:41.233Z,96003.42
2024-02-11T00:47:11.194Z,96004.27
2024-02-11T00:49:39.635Z,96006.61
2024-02-11T00:52:08.313Z,96002.93
2024-02-11T00:54:39.380Z,95999.88
2024-02-11T00:57:09.434Z,95996.27
2024-02-11T00:59:39.286Z,95992.50
2024-02-11T01:02:08.694Z,95996.73
2024-02-11T01:04:40.902Z,95996.00
2024-02-11T01:07:09.961Z,95994.27
2024-02-11T01:09:39.051Z,95993.89
2024-02-11T01:12:07.731Z,95986.17
2024-02-11T01:14:36.348Z,95988.34
2024-02-11T01:17:05.155Z,95985.98
2024-02-11T01:19:34.007Z,95981.57
2024-02-11T01:22:03.194Z,95980.84
2024-02-11T01:24:31.682Z,95979.71
2024-02-11T01:27:01.279Z,95976.73
2024-02-11T01:29:29.965Z,95980.98
2024-02-11T01:32:00.218Z,95973.23
2024-02-11T01:34:30.472Z,95958.95
2024-02-11T01:36:59.314Z,95962.08
2024-02-11T01:39:28.395Z,95957.25
2024-02-11T01:41:56.975Z,95943.89
2024-02-11T01:44:25.510Z,95944.74
2024-02-11T01:46:54.666Z,95940.17
2024-02-11T01:49:23.953Z,95936.19
2024-02-11T01:51:53.358Z,95935.86
2024-02-11T01:54:22.962Z,95939.00
2024-02-11T01:56:52.371Z,95935.00
2024-02-11T01:59:21.198Z,95938.39
2024-02-11T02:01:51.550Z,95934.16
2024-02-11T02:04:20.405Z,95929.08
2024-02-11T02:06:50.639Z,95936.41
2024-02-11T02:09:19.592Z,95936.91
2024-02-11T02:11:48.274Z,95937.39
2024-02-11T02:14:17.713Z,95934.02
2024-02-11T02:16:46.932Z,95932.67
2024-02-11T02:19:16.629Z,95932.29
2024-02-11T02:21:49.361Z,95933.98
2024-02-11T02:24:18.251Z,95931.27
2024-02-11T02:26:48.187Z,95929.29
2024-02-11T02:29:16.957Z,95926.29
2024-02-11T02:31:46.751Z,95924.08
2024-02-11T02:34:15.514Z,95920.90
2024-02-11T02:36:44.236Z,95919.20
2024-02-11T02:39:14.971Z,95916.55
2024-02-11T02:41:43.715Z,95918.24
2024-02-11T02:44:12.549Z,95924.88
2024-02-11T02:46:41.253Z,95920.52
2024-02-11T02:49:10.069Z,95920.30
2024-02-11T02:51:43.418Z,95922.03
2024-02-11T02:54:14.252Z,95917.63
2024-02-11T02:56:42.938Z,95920.41
2024-02-11T02:59:12.077Z,95917.38
2024-02-11T03:01:40.851Z,95909.71
2024-02-11T03:04:10.323Z,95902.23
2024-02-11T03:06:38.910Z,95898.34
2024-02-11T03:09:07.925Z,95890.46
2024-02-11T03:11:37.206Z,95878.38
2024-02-11T03:14:06.452Z,95867.27
2024-02-11T03:16:35.218Z,95854.38
2024-02-11T03:19:07.391Z,95847.21
2024-02-11T03:21:36.350Z,95844.50
2024-02-11T03:24:06.156Z,95841.66
2024-02-11T03:26:35.262Z,95835.65
2024-02-11T03:29:04.766Z,95834.73
2024-02-11T03:31:33.688Z,95841.55
2024-02-11T03:34:06.575Z,95841.02
2024-02-11T03:36:35.434Z,95842.11
2024-02-11T03:39:10.996Z,95845.01
2024-02-11T03:41:39.678Z,95832.42
2024-02-11T03:44:08.689Z,95831.52
2024-02-11T03:46:37.286Z,95824.14
2024-02-11T03:49:06.461Z,95824.14
2024-02-11T03:51:35.446Z,95818.20
2024-02-11T03:54:04.719Z,95809.73
2024-02-11T03:56:35.778Z,95805.74
2024-02-11T03:59:05.014Z,95796.75
2024-02-11T04:01:35.612Z,95795.00
2024-02-11T04:04:05.642Z,95800.34
2024-02-11T04:06:36.297Z,95794.98
2024-02-11T04:09:05.236Z,95794.78
2024-02-11T04:11:33.792Z,95794.75
2024-02-11T04:14:02.937Z,95793.93
2024-02-11T04:16:31.840Z,95794.20
2024-02-11T04:19:00.718Z,95791.65
2024-02-11T04:21:33.801Z,95789.63
2024-02-11T04:24:02.776Z,95787.88
2024-02-11T04:26:31.309Z,95777.71
2024-02-11T04:29:01.791Z,95773.73
2024-02-11T04:31:32.678Z,95767.40
2024-02-11T04:34:02.156Z,95761.27
2024-02-11T04:36:31.634Z,95758.93
2024-02-11T04:39:01.504Z,95758.38
2024-02-11T04:41:30.062Z,95762.18
2024-02-11T04:43:58.855Z,95761.36
2024-02-11T04:46:27.982Z,95762.84
2024-02-11T04:48:57.988Z,95762.89
2024-02-11T04:51:29.270Z,95759.96
2024-02-11T04:54:01.342Z,95758.70
2024-02-11T04:56:30.292Z,95757.89
2024-02-11T04:59:03.408Z,95762.16
2024-02-11T05:01:33.305Z,95766.93
2024-02-11T05:04:03.123Z,95762.90
2024-02-11T05:06:33.577Z,95766.65
2024-02-11T05:09:02.520Z,95766.48
2024-02-11T05:11:31.176Z,95770.14
2024-02-11T05:14:00.019Z,95776.06
2024-02-11T05:16:29.924Z,95776.17
2024-02-11T05:18:58.678Z,95773.41
2024-02-11T05:21:27.424Z,95773.31
2024-02-11T05:23:56.729Z,95775.09
2024-02-11T05:26:26.057Z,95773.91
2024-02-11T05:28:55.239Z,95773.55
2024-02-11T05:31:25.445Z,95780.51
2024-02-11T05:33:54.017Z,95787.04
2024-02-11T05:36:22.920Z,95787.98
2024-02-11T05:38:51.497Z,95792.58
2024-02-11T05:41:20.242Z,95790.41
2024-02-11T05:43:49.649Z,95780.10
2024-02-11T05:46:18.274Z,95778.17
2024-02-11T05:48:46.970Z,95775.52
2024-02-11T05:51:15.645Z,95771.70
2024-02-11T05:53:44.437Z,95774.45
2024-02-11T05:56:15.135Z,95777.09
2024-02-11T05:58:43.804Z,95779.75
2024-02-11T06:01:12.578Z,95780.59
2024-02-11T06:03:41.766Z,95780.61
2024-02-11T06:06:10.524Z,95783.03
2024-02-11T06:08:39.330Z,95782.71
2024-02-11T06:11:08.777Z,95780.86
2024-02-11T06:13:38.586Z,95781.17
2024-02-11T06:16:07.935Z,95775.88
2024-02-11T06:18:37.735Z,95778.31
2024-02-11T06:21:07.546Z,95779.64
2024-02-11T06:23:37.979Z,95777.27
2024-02-11T06:26:06.775Z,95781.67
2024-02-11T06:28:36.467Z,95786.09
2024-02-11T06:31:07.728Z,95779.15
2024-02-11T06:33:36.369Z,95773.09
2024-02-11T06:36:07.584Z,95775.50
2024-02-11T06:38:38.077Z,95778.77
2024-02-11T06:41:06.800Z,95770.55
2024-02-11T06:43:36.278Z,95765.34
2024-02-11T06:46:05.773Z,95775.01
2024-02-11T06:48:34.444Z,95773.20
2024-02-11T06:51:03.447Z,95764.52
2024-02-11T06:53:32.605Z,95767.31
2024-02-11T06:56:01.198Z,95764.19
2024-02-11T06:58:31.266Z,95755.63
2024-02-11T07:01:00.700Z,95758.23
2024-02-11T07:03:30.414Z,95753.88
2024-02-11T07:05:59.206Z,95765.11
2024-02-11T07:08:29.032Z,95764.23
2024-02-11T07:10:57.762Z,95761.50
2024-02-11T07:13:27.068Z,95766.55
2024-02-11T07:15:58.087Z,95767.90
2024-02-11T07:18:28.023Z,95764.02
2024-02-11T07:20:57.614Z,95763.58
2024-02-11T07:23:28.160Z,95764.80
2024-02-11T07:25:57.102Z,95761.15
2024-02-11T07:28:27.383Z,95765.70
2024-02-11T07:30:58.094Z,95768.63
2024-02-11T07:33:26.832Z,95773.52
2024-02-11T07:35:55.704Z,95779.35
2024-02-11T07:38:24.850Z,95774.46
2024-02-11T07:40:55.216Z,95779.97
2024-02-11T07:43:26.946Z,95780.65
2024-02-11T07:45:59.621Z,95787.60
2024-02-11T07:48:29.649Z,95795.92
2024-02-11T07:50:58.636Z,95791.64
2024-02-11T07:53:27.355Z,95794.34
2024-02-11T07:55:55.941Z,95791.86
2024-02-11T07:58:25.439Z,95799.03
2024-02-11T08:00:54.208Z,95807.33
2024-02-11T08:03:24.716Z,95798.41
2024-02-11T08:05:54.768Z,95790.46
2024-02-11T08:08:23.447Z,95792.02
2024-02-11T08:10:52.963Z,95793.21
2024-02-11T08:13:22.540Z,95785.28
2024-02-11T08:15:51.321Z,95780.67
2024-02-11T08:18:20.055Z,95773.94
2024-02-11T08:20:48.694Z,95776.71
2024-02-11T08:23:17.302Z,95773.86
2024-02-11T08:25:47.326Z,95772.52
2024-02-11T08:28:16.086Z,95773.27
2024-02-11T08:30:45.279Z,95778.63
2024-02-11T08:33:14.183Z,95782.64
2024-02-11T08:35:43.576Z,95778.44
2024-02-11T08:38:12.187Z,95775.23
2024-02-11T08:40:41.490Z,95779.16
2024-02-11T08:43:10.548Z,95774.45
2024-02-11T08:45:39.232Z,95778.15
2024-02-11T08:48:08.336Z,95779.37
2024-02-11T08:50:37.137Z,95777.02
2024-02-11T08:53:06.805Z,95771.66
2024-02-11T08:55:35.629Z,95768.03
2024-02-11T08:58:05.876Z,95770.40
2024-02-11T09:00:34.639Z,95771.88
2024-02-11T09:03:04.549Z,95774.19
2024-02-11T09:05:35.807Z,95779.52
2024-02-11T09:08:04.541Z,95784.61
2024-02-11T09:10:34.604Z,95782.35
2024-02-11T09:13:03.602Z,95787.33
2024-02-11T09:15:32.183Z,95779.92
2024-02-11T09:18:01.082Z,95781.23
2024-02-11T09:20:30.195Z,95787.27
2024-02-11T09:22:59.173Z,95787.61
2024-02-11T09:25:30.606Z,95793.00
2024-02-11T09:28:00.031Z,95799.13
2024-02-11T09:30:28.701Z,95801.19
2024-02-11T09:32:57.518Z,95799.81
2024-02-11T09:35:27.033Z,95801.73
2024-02-11T09:37:55.920Z,95808.23
2024-02-11T09:40:25.167Z,95806.32
2024-02-11T09:42:55.081Z,95802.85
2024-02-11T09:45:25.200Z,95802.13
2024-02-11T09:47:55.578Z,95800.90
2024-02-11T09:50:25.822Z,95799.05
2024-02-11T09:52:54.713Z,95792.30
2024-02-11T09:55:24.778Z,95792.06
2024-02-11T09:57:53.442Z,95790.19
2024-02-11T10:00:22.103Z,95792.02
2024-02-11T10:02:51.611Z,95790.77
2024-02-11T10:05:24.936Z,95791.38
2024-02-11T10:07:56.641Z,95790.46
2024-02-11T10:10:25.570Z,95790.02
2024-02-11T10:12:56.351Z,95784.77
2024-02-11T10:15:26.983Z,95776.92
2024-02-11T10:17:55.576Z,95766.20
2024-02-11T10:20:24.539Z,95758.41
2024-02-11T10:22:53.640Z,95755.89
2024-02-11T10:25:24.655Z,95754.88
2024-02-11T10:27:53.878Z,95746.20
2024-02-11T10:30:22.529Z,95747.39
2024-02-11T10:32:51.650Z,95743.75
2024-02-11T10:35:20.556Z,95741.79
2024-02-11T10:37:53.695Z,95737.27
2024-02-11T10:40:26.358Z,95741.86
2024-02-11T10:42:56.253Z,95736.61
2024-02-11T10:45:26.865Z,95729.45
2024-02-11T10:47:55.543Z,95727.23
2024-02-11T10:50:25.651Z,95728.26
2024-02-11T10:52:57.026Z,95717.01
2024-02-11T10:55:25.968Z,95711.37
2024-02-11T10:57:55.903Z,95712.05
2024-02-11T11:00:25.997Z,95708.08
2024-02-11T11:03:02.579Z,95711.73
2024-02-11T11:05:34.237Z,95710.48
2024-02-11T11:08:03.485Z,95707.65
2024-02-11T11:10:38.741Z,95709.91
2024-02-11T11:13:10.502Z,95701.67
2024-02-11T11:15:39.632Z,95701.02
2024-02-11T11:18:10.710Z,95707.94
2024-02-11T11:20:51.552Z,95702.38
2024-02-11T11:23:20.588Z,95699.58
2024-02-11T11:25:55.029Z,95693.77
2024-02-11T11:28:29.072Z,95693.88
2024-02-11T11:30:58.988Z,95686.81
2024-02-11T11:33:33.799Z,95686.54
2024-02-11T11:36:04.650Z,95683.50
2024-02-11T11:38:33.421Z,95684.75
2024-02-11T11:41:02.300Z,95680.52
2024-02-11T11:43:34.126Z,95672.39
2024-02-11T11:46:06.826Z,95673.41
2024-02-11T11:48:38.120Z,95675.58
2024-02-11T11:51:13.134Z,95668.40
2024-02-11T11:53:45.325Z,95665.46
2024-02-11T11:56:15.760Z,95661.42
2024-02-11T11:58:44.870Z,95661.91
2024-02-11T12:01:13.612Z,95658.31
2024-02-11T12:03:43.063Z,95656.20
2024-02-11T12:06:12.779Z,95652.38
2024-02-11T12:08:41.487Z,95644.86
2024-02-11T12:11:11.057Z,95648.20
2024-02-11T12:13:40.475Z,95648.16
2024-02-11T12:16:17.399Z,95642.31
2024-02-11T12:18:47.225Z,95640.79
2024-02-11T12:21:17.077Z,95641.77
2024-02-11T12:23:46.117Z,95635.95
2024-02-11T12:26:20.071Z,95629.05
2024-02-11T12:28:52.345Z,95615.16
2024-02-11T12:31:22.198Z,95617.70
2024-02-11T12:33:51.957Z,95617.69
2024-02-11T12:36:24.716Z,95622.25
2024-02-11T12:38:55.173Z,95624.73
2024-02-11T12:41:25.050Z,95624.64
2024-02-11T12:43:54.980Z,95625.98
2024-02-11T12:46:23.652Z,95620.45
2024-02-11T12:48:52.377Z,95616.35
2024-02-11T12:51:21.599Z,95623.86
2024-02-11T12:53:50.888Z,95618.48
2024-02-11T12:56:20.623Z,95623.98
2024-02-11T12:58:52.571Z,95630.88
2024-02-11T13:01:22.334Z,95622.91
2024-02-11T13:03:51.860Z,95617.61
2024-02-11T13:06:20.733Z,95618.41
2024-02-11T13:08:49.609Z,95621.16
2024-02-11T13:11:23.333Z,95615.33
2024-02-11T13:13:53.591Z,95618.18
2024-02-11T13:16:23.038Z,95627.16
2024-02-11T13:18:53.552Z,95619.50
2024-02-11T13:21:22.562Z,95630.53
2024-02-11T13:23:51.348Z,95636.92
2024-02-11T13:26:20.412Z,95625.31
2024-02-11T13:28:49.993Z,95633.24
2024-02-11T13:31:25.343Z,95629.88
2024-02-11T13:33:59.001Z,95625.62
2024-02-11T13:36:28.846Z,95638.46
2024-02-11T13:38:57.703Z,95626.42
2024-02-11T13:41:26.598Z,95628.02
2024-02-11T13:43:55.337Z,95627.85
2024-02-11T13:46:23.956Z,95624.09
2024-02-11T13:48:53.213Z,95624.43
2024-02-11T13:51:22.244Z,95618.42
2024-02-11T13:53:50.940Z,95626.00
2024-02-11T13:56:19.671Z,95626.30
2024-02-11T13:58:48.866Z,95616.48
2024-02-11T14:01:17.797Z,95616.18
2024-02-11T14:03:47.517Z,95606.80
2024-02-11T14:06:16.979Z,95613.36
2024-02-11T14:08:48.365Z,95617.10
2024-02-11T14:11:17.900Z,95618.29
2024-02-11T14:13:46.870Z,95617.12
2024-02-11T14:16:17.038Z,95620.14
2024-02-11T14:18:45.816Z,95626.79
2024-02-11T14:21:14.665Z,95619.67
2024-02-11T14:23:47.674Z,95616.39
2024-02-11T14:26:18.692Z,95622.71
2024-02-11T14:28:49.568Z,95616.81
2024-02-11T14:31:18.115Z,95611.69
2024-02-11T14:33:46.758Z,95610.06
2024-02-11T14:36:16.501Z,95614.80
2024-02-11T14:38:47.042Z,95614.34
2024-02-11T14:41:20.569Z,95614.80
2024-02-11T14:43:49.389Z,95615.81
2024-02-11T14:46:20.371Z,95616.71
2024-02-11T14:48:48.917Z,95613.88
2024-02-11T14:51:17.949Z,95609.02
2024-02-11T14:53:48.096Z,95606.32
2024-02-11T14:56:16.783Z,95607.52
2024-02-11T14:58:45.809Z,95603.67
2024-02-11T15:01:16.330Z,95607.33
2024-02-11T15:03:46.266Z,95607.66
2024-02-11T15:06:15.448Z,95611.18
2024-02-11T15:08:45.641Z,95619.45
2024-02-11T15:11:15.942Z,95627.89
2024-02-11T15:13:45.550Z,95622.68
2024-02-11T15:16:14.626Z,95625.52
2024-02-11T15:18:43.362Z,95630.58
2024-02-11T15:21:12.310Z,95633.67
2024-02-11T15:23:40.895Z,95632.46
2024-02-11T15:26:10.949Z,95632.17
2024-02-11T15:28:39.778Z,95641.65
2024-02-11T15:31:08.786Z,95640.15
2024-02-11T15:33:37.525Z,95641.45
2024-02-11T15:36:08.018Z,95632.92
2024-02-11T15:38:39.318Z,95631.73
2024-02-11T15:41:11.268Z,95630.79
2024-02-11T15:43:40.003Z,95632.51
2024-02-11T15:46:08.797Z,95638.24
2024-02-11T15:48:38.806Z,95641.85
2024-02-11T15:51:11.282Z,95648.88
2024-02-11T15:53:39.857Z,95654.71
2024-02-11T15:56:09.003Z,95653.88
2024-02-11T15:58:37.951Z,95653.16
2024-02-11T16:01:07.329Z,95648.04
2024-02-11T16:03:38.351Z,95654.56
2024-02-11T16:06:07.653Z,95655.73
2024-02-11T16:08:38.221Z,95657.89
2024-02-11T16:11:06.854Z,95658.08
2024-02-11T16:13:36.020Z,95665.70
2024-02-11T16:16:05.025Z,95669.41
2024-02-11T16:18:33.948Z,95671.76
2024-02-11T16:21:03.083Z,95676.48
2024-02-11T16:23:32.299Z,95688.90
2024-02-11T16:26:01.092Z,95693.45
2024-02-11T16:28:29.873Z,95690.66
2024-02-11T16:30:59.799Z,95690.54
2024-02-11T16:33:34.829Z,95694.09
2024-02-11T16:36:04.693Z,95699.38
2024-02-11T16:38:33.729Z,95697.56
2024-02-11T16:41:02.657Z,95700.58
2024-02-11T16:43:31.709Z,95701.45
2024-02-11T16:46:00.343Z,95705.73
2024-02-11T16:48:29.283Z,95712.05
2024-02-11T16:51:00.003Z,95716.00
2024-02-11T16:53:29.850Z,95716.80
2024-02-11T16:55:58.776Z,95717.52
2024-02-11T16:58:29.046Z,95728.56
2024-02-11T17:01:00.346Z,95731.13
2024-02-11T17:03:29.736Z,95730.48
2024-02-11T17:05:58.824Z,95733.31
2024-02-11T17:08:27.797Z,95736.48
2024-02-11T17:10:56.686Z,95737.73
2024-02-11T17:13:25.755Z,95739.19
2024-02-11T17:15:56.081Z,95742.70
2024-02-11T17:18:25.707Z,95741.13
2024-02-11T17:21:06.599Z,95740.98
2024-02-11T17:23:41.816Z,95738.80
2024-02-11T17:26:12.079Z,95738.05
2024-02-11T17:28:47.692Z,95736.20
2024-02-11T17:31:16.564Z,95736.33
2024-02-11T17:33:47.232Z,95735.56
2024-02-11T17:36:16.946Z,95733.36
2024-02-11T17:38:46.203Z,95736.19
2024-02-11T17:41:15.777Z,95733.52
2024-02-11T17:43:44.865Z,95733.50
2024-02-11T17:46:15.025Z,95729.34
2024-02-11T17:48:45.490Z,95737.84
2024-02-11T17:51:18.527Z,95737.08
2024-02-11T17:53:50.734Z,95733.54
2024-02-11T17:56:20.069Z,95728.19
2024-02-11T17:58:49.109Z,95735.59
2024-02-11T18:01:18.973Z,95730.92
2024-02-11T18:03:49.234Z,95731.58
2024-02-11T18:06:18.371Z,95734.52
2024-02-11T18:08:47.840Z,95736.44
2024-02-11T18:11:16.651Z,95736.96
2024-02-11T18:13:45.465Z,95738.76
2024-02-11T18:16:14.194Z,95742.23
2024-02-11T18:18:42.846Z,95742.33
2024-02-11T18:21:12.490Z,95748.39
2024-02-11T18:23:41.589Z,95750.77
2024-02-11T18:26:13.292Z,95751.07
2024-02-11T18:28:43.821Z,95748.14
2024-02-11T18:31:17.589Z,95745.16
2024-02-11T18:33:46.853Z,95742.67
2024-02-11T18:36:15.622Z,95741.73
2024-02-11T18:38:44.407Z,95748.04
2024-02-11T18:41:16.009Z,95749.12
2024-02-11T18:43:47.313Z,95748.50
2024-02-11T18:46:17.068Z,95746.52
2024-02-11T18:48:46.125Z,95741.45
2024-02-11T18:51:15.383Z,95740.63
2024-02-11T18:53:44.071Z,95743.57
2024-02-11T18:56:12.789Z,95741.31
2024-02-11T18:58:44.308Z,95745.49
2024-02-11T19:01:13.062Z,95751.23
2024-02-11T19:03:42.275Z,95751.13
2024-02-11T19:06:11.239Z,95757.85
2024-02-11T19:08:41.578Z,95758.81
2024-02-11T19:11:10.839Z,95761.09
2024-02-11T19:13:39.464Z,95763.62
2024-02-11T19:16:09.985Z,95769.90
2024-02-11T19:18:38.961Z,95773.34
2024-02-11T19:21:07.874Z,95776.81
2024-02-11T19:23:37.791Z,95778.27
2024-02-11T19:26:06.855Z,95787.15
2024-02-11T19:28:35.588Z,95795.75
2024-02-11T19:31:04.568Z,95790.79
2024-02-11T19:33:34.519Z,95789.38
2024-02-11T19:36:03.774Z,95788.08
2024-02-11T19:38:32.425Z,95782.42
2024-02-11T19:41:01.382Z,95778.48
2024-02-11T19:43:31.166Z,95780.34
2024-02-11T19:46:00.367Z,95785.45
2024-02-11T19:48:29.821Z,95790.06
2024-02-11T19:51:00.196Z,95796.13
2024-02-11T19:53:35.530Z,95796.91
2024-02-11T19:56:09.529Z,95799.40
2024-02-11T19:58:41.543Z,95805.53
2024-02-11T20:01:11.463Z,95806.13
2024-02-11T20:03:41.342Z,95802.94
2024-02-11T20:06:10.154Z,95804.25
2024-02-11T20:08:39.113Z,95802.77
2024-02-11T20:11:10.285Z,95801.83
2024-02-11T20:13:38.956Z,95800.84
2024-02-11T20:16:14.060Z,95799.95
2024-02-11T20:18:43.138Z,95797.73
2024-02-11T20:21:12.584Z,95811.62
2024-02-11T20:23:44.924Z,95817.41
2024-02-11T20:26:16.708Z,95823.02
2024-02-11T20:28:47.274Z,95831.64
2024-02-11T20:31:16.440Z,95832.45
2024-02-11T20:33:48.289Z,95833.39
2024-02-11T20:36:17.509Z,95834.95
2024-02-11T20:38:46.412Z,95836.20
2024-02-11T20:41:18.779Z,95830.60
2024-02-11T20:43:47.410Z,95829.27
2024-02-11T20:46:16.129Z,95822.95
2024-02-11T20:48:45.648Z,95816.42
2024-02-11T20:51:14.318Z,95812.34
2024-02-11T20:53:45.647Z,95819.17
2024-02-11T20:56:15.437Z,95824.52
2024-02-11T20:58:45.290Z,95835.96
2024-02-11T21:01:14.232Z,95841.75
2024-02-11T21:03:42.902Z,95838.09
2024-02-11T21:06:13.296Z,95834.99
2024-02-11T21:08:41.973Z,95830.41
2024-02-11T21:11:10.588Z,95830.39
2024-02-11T21:13:41.802Z,95828.69
2024-02-11T21:16:11.819Z,95833.02
2024-02-11T21:18:45.317Z,95826.86
2024-02-11T21:21:14.662Z,95828.48
2024-02-11T21:23:46.285Z,95830.17
2024-02-11T21:26:17.395Z,95829.73
2024-02-11T21:28:49.521Z,95828.48
2024-02-11T21:31:22.299Z,95833.70
2024-02-11T21:33:52.500Z,95833.95
2024-02-11T21:36:21.482Z,95831.98
2024-02-11T21:38:50.065Z,95829.63
2024-02-11T21:41:19.509Z,95832.63
2024-02-11T21:43:48.683Z,95833.65
2024-02-11T21:46:19.564Z,95833.23
2024-02-11T21:48:58.455Z,95832.37
2024-02-11T21:51:27.647Z,95832.49
2024-02-11T21:53:56.415Z,95829.88
2024-02-11T21:56:24.944Z,95828.56
2024-02-11T21:58:53.731Z,95828.16
2024-02-11T22:01:24.621Z,95827.80
2024-02-11T22:03:55.614Z,95831.99
2024-02-11T22:06:27.200Z,95835.24
2024-02-11T22:08:56.002Z,95832.79
2024-02-11T22:11:25.370Z,95835.25
2024-02-11T22:13:54.357Z,95839.20
2024-02-11T22:16:23.389Z,95835.61
2024-02-11T22:18:53.251Z,95843.70
2024-02-11T22:21:22.086Z,95846.42
2024-02-11T22:23:50.675Z,95848.81
2024-02-11T22:26:19.209Z,95844.75
2024-02-11T22:28:47.966Z,95842.04
2024-02-11T22:31:17.365Z,95840.42
2024-02-11T22:33:46.402Z,95838.75
2024-02-11T22:36:17.686Z,95840.70
2024-02-11T22:38:46.816Z,95843.88
2024-02-11T22:41:17.456Z,95845.68
2024-02-11T22:43:47.554Z,95844.20
2024-02-11T22:46:16.141Z,95849.35
2024-02-11T22:48:45.228Z,95850.30
2024-02-11T22:51:14.109Z,95850.86
2024-02-11T22:53:42.629Z,95852.77
2024-02-11T22:56:11.441Z,95859.30
2024-02-11T22:58:40.050Z,95858.95
2024-02-11T23:01:08.655Z,95857.76
2024-02-11T23:03:37.322Z,95854.45
2024-02-11T23:06:06.429Z,95855.78
2024-02-11T23:08:35.342Z,95860.00
2024-02-11T23:11:04.006Z,95861.11
2024-02-11T23:13:34.111Z,95856.33
2024-02-11T23:16:03.107Z,95852.73
2024-02-11T23:18:31.770Z,95851.37
2024-02-11T23:21:03.195Z,95857.60
2024-02-11T23:23:32.108Z,95853.35
2024-02-11T23:26:04.079Z,95854.60
2024-02-11T23:28:32.701Z,95860.33
2024-02-11T23:31:01.366Z,95854.94
2024-02-11T23:33:30.209Z,95860.11
2024-02-11T23:35:58.831Z,95863.48
2024-02-11T23:38:28.374Z,95867.61
2024-02-11T23:40:57.240Z,95865.27
2024-02-11T23:43:26.429Z,95863.79
2024-02-11T23:45:55.019Z,95865.98
2024-02-11T23:48:23.879Z,95863.38
2024-02-11T23:50:58.169Z,95862.55
2024-02-11T23:53:28.471Z,95861.05
2024-02-11T23:55:57.848Z,95858.21
2024-02-11T23:58:27.688Z,95853.65
